Time;durP1;ratioP1;P1;durP2;ratioP2;P2;SDS_P1;SDS_P2;PMS_P1;PMS_P2;Temp;Humidity;BMP_temperature;BMP_pressure;BME280_temperature;BME280_humidity;BME280_pressure;Samples;Min_cycle;Max_cycle;Signal;HPM_P1;HPM_P2
2024/01/04 00:01:27;;;;;;;3.00;1.57;;;;;;;19.90;55.48;95852.19;4993973;28;20309;-25
2024/01/04 00:03:54;;;;;;;2.80;1.40;;;;;;;19.91;55.30;95855.59;4992703;28;20211;-25
2024/01/04 00:06:21;;;;;;;3.87;1.40;;;;;;;19.89;55.08;95857.28;4994233;28;20207;-25
2024/01/04 00:08:47;;;;;;;3.00;1.57;;;;;;;19.89;55.39;95862.38;4992163;28;20195;-25
2024/01/04 00:11:14;;;;;;;2.07;1.50;;;;;;;19.89;55.37;95863.25;4991356;28;20221;-26
2024/01/04 00:13:41;;;;;;;4.97;1.73;;;;;;;19.90;55.42;95866.66;4988659;28;20696;-25
2024/01/04 00:16:10;;;;;;;1.63;1.20;;;;;;;19.90;55.23;95871.75;4984790;28;20553;-25
2024/01/04 00:18:37;;;;;;;1.97;1.20;;;;;;;19.90;55.25;95871.75;4989196;28;20654;-25
2024/01/04 00:21:05;;;;;;;2.67;1.20;;;;;;;19.89;55.47;95868.34;4993120;28;20756;-25
2024/01/04 00:23:34;;;;;;;1.30;1.20;;;;;;;19.90;55.39;95874.31;4991041;28;20223;-25
2024/01/04 00:26:01;;;;;;;2.47;1.50;;;;;;;19.89;55.34;95865.78;4985009;28;20229;-25
2024/01/04 00:28:27;;;;;;;1.53;1.30;;;;;;;19.90;55.44;95871.75;4989400;28;20227;-25
2024/01/04 00:30:54;;;;;;;2.20;1.23;;;;;;;19.90;55.28;95870.03;5008207;23;20226;-23
2024/01/04 00:33:21;;;;;;;1.30;1.20;;;;;;;19.91;55.19;95878.56;5000794;28;20211;-24
2024/01/04 00:35:47;;;;;;;1.73;1.40;;;;;;;19.91;54.98;95881.97;4996441;28;20622;-23
2024/01/04 00:38:14;;;;;;;1.40;1.30;;;;;;;19.92;54.93;95885.34;4998733;28;20231;-23
2024/01/04 00:40:41;;;;;;;1.73;1.20;;;;;;;19.92;55.14;95881.13;5001726;28;20234;-23
2024/01/04 00:43:09;;;;;;;1.33;1.10;;;;;;;19.92;55.01;95881.13;5003625;28;20305;-23
2024/01/04 00:45:36;;;;;;;1.87;1.30;;;;;;;19.92;55.28;95881.13;5011071;28;20261;-23
2024/01/04 00:48:02;;;;;;;1.27;1.17;;;;;;;19.92;55.27;95882.81;5002984;28;20253;-23
2024/01/04 00:50:29;;;;;;;1.47;1.30;;;;;;;19.91;55.14;95887.06;5010162;28;20317;-23
2024/01/04 00:52:56;;;;;;;4.00;1.40;;;;;;;19.90;55.07;95887.06;5010243;28;20238;-23
2024/01/04 00:55:34;;;;;;;1.63;1.23;;;;;;;19.91;55.30;95893.84;5008822;28;20202;-23
2024/01/04 00:58:03;;;;;;;1.53;1.20;;;;;;;19.90;54.42;95904.91;5010953;28;20225;-23
2024/01/04 01:00:30;;;;;;;3.30;1.30;;;;;;;19.89;55.22;95895.53;5009780;28;20679;-23
2024/01/04 01:02:57;;;;;;;1.30;1.20;;;;;;;19.90;55.18;95902.34;5010025;28;20641;-23
2024/01/04 01:05:23;;;;;;;1.40;1.30;;;;;;;19.89;54.97;95896.38;5005161;28;20208;-23
2024/01/04 01:07:50;;;;;;;1.30;1.20;;;;;;;19.90;55.29;95904.91;5002929;28;20264;-25
2024/01/04 01:10:17;;;;;;;1.27;1.03;;;;;;;19.91;55.13;95898.94;5011774;28;20202;-24
2024/01/04 01:12:43;;;;;;;1.53;1.20;;;;;;;19.90;55.28;95902.34;5010609;28;20590;-23
2024/01/04 01:15:10;;;;;;;1.23;1.13;;;;;;;19.91;55.32;95898.94;4999493;28;20257;-23
2024/01/04 01:17:37;;;;;;;1.17;1.10;;;;;;;19.91;55.19;95896.41;5010008;28;20292;-23
2024/01/04 01:20:04;;;;;;;1.50;1.40;;;;;;;19.91;55.23;95911.69;5008357;28;20199;-23
2024/01/04 01:22:30;;;;;;;1.30;1.20;;;;;;;19.90;55.24;95905.72;5004705;28;20234;-23
2024/01/04 01:24:57;;;;;;;1.13;1.00;;;;;;;19.91;55.22;95911.69;5000680;28;20206;-23
2024/01/04 01:27:24;;;;;;;2.23;1.20;;;;;;;19.91;55.12;95916.78;5007398;28;20241;-23
2024/01/04 01:29:51;;;;;;;1.40;1.30;;;;;;;19.92;55.03;95918.50;5008836;28;20585;-23
2024/01/04 01:32:18;;;;;;;1.30;1.20;;;;;;;19.92;55.06;95918.50;4945674;28;1679364;-23
2024/01/04 01:34:44;;;;;;;1.67;1.23;;;;;;;19.92;55.08;95916.81;5005939;28;20296;-23
2024/01/04 01:37:11;;;;;;;1.90;1.10;;;;;;;19.91;55.21;95925.31;5002088;28;20203;-23
2024/01/04 01:39:38;;;;;;;2.53;1.20;;;;;;;19.91;55.10;95914.25;5010896;28;20210;-23
2024/01/04 01:42:05;;;;;;;2.27;1.37;;;;;;;19.90;55.14;95920.19;5001828;28;20254;-23
2024/01/04 01:44:32;;;;;;;1.33;1.07;;;;;;;19.89;55.20;95923.56;5007864;28;20665;-23
2024/01/04 01:46:58;;;;;;;1.40;1.30;;;;;;;19.84;55.12;95913.31;5009103;28;20210;-23
2024/01/04 01:49:25;;;;;;;1.37;1.03;;;;;;;19.88;55.14;95917.63;4993753;28;20717;-23
2024/01/04 01:51:53;;;;;;;1.67;1.23;;;;;;;19.89;55.10;95921.00;4993273;28;20365;-23
2024/01/04 01:54:19;;;;;;;1.37;1.17;;;;;;;19.88;55.25;95921.84;5002443;28;20202;-23
2024/01/04 01:56:46;;;;;;;2.00;1.40;;;;;;;19.88;55.19;95937.16;5010426;28;20202;-24
2024/01/04 01:59:12;;;;;;;1.10;1.00;;;;;;;19.88;55.35;95920.19;5002860;28;20242;-26
2024/01/04 02:01:52;;;;;;;1.63;1.20;;;;;;;19.88;55.31;95932.06;4993828;28;20309;-23
2024/01/04 02:04:18;;;;;;;1.20;1.10;;;;;;;19.88;55.18;95932.06;5007637;28;20220;-28
2024/01/04 02:06:45;;;;;;;1.40;1.30;;;;;;;19.88;55.12;95935.47;5011267;28;20206;-23
2024/01/04 02:09:12;;;;;;;1.33;1.10;;;;;;;19.88;55.18;95935.47;5011882;28;20233;-23
2024/01/04 02:11:40;;;;;;;1.57;1.47;;;;;;;19.89;55.31;95939.72;5010231;28;20284;-25
2024/01/04 02:14:06;;;;;;;2.10;1.20;;;;;;;19.88;55.14;95938.03;5010364;28;20213;-23
2024/01/04 02:16:33;;;;;;;1.30;1.20;;;;;;;19.89;55.23;95939.72;5010438;28;20214;-23
2024/01/04 02:18:59;;;;;;;1.30;1.20;;;;;;;19.84;54.98;95922.69;5003470;28;20202;-23
2024/01/04 02:21:26;;;;;;;1.10;1.00;;;;;;;19.90;55.12;95945.69;4990583;28;20223;-24
2024/01/04 02:23:53;;;;;;;1.20;1.10;;;;;;;19.91;55.06;95949.94;5006740;28;20234;-23
2024/01/04 02:26:19;;;;;;;1.00;1.00;;;;;;;19.91;55.10;95944.84;5011906;28;20198;-23
2024/01/04 02:28:46;;;;;;;1.27;1.17;;;;;;;19.90;55.15;95943.13;5006317;28;20202;-24
2024/01/04 02:31:13;;;;;;;1.67;1.40;;;;;;;19.89;55.02;95947.38;5011267;28;20262;-23
2024/01/04 02:33:40;;;;;;;1.40;1.30;;;;;;;19.91;55.19;95952.47;5008396;28;20217;-23
2024/01/04 02:36:06;;;;;;;1.50;1.20;;;;;;;19.91;55.16;95949.94;5001376;28;20564;-23
2024/01/04 02:38:33;;;;;;;0.97;0.93;;;;;;;19.91;55.02;95950.81;5009218;28;20213;-23
2024/01/04 02:40:59;;;;;;;1.20;1.10;;;;;;;19.91;55.16;95957.59;5004302;28;20615;-24
2024/01/04 02:43:26;;;;;;;1.73;1.20;;;;;;;19.90;55.06;95945.69;5010639;28;20936;-23
2024/01/04 02:45:52;;;;;;;1.10;1.10;;;;;;;19.91;55.20;95952.47;5007426;28;20209;-23
2024/01/04 02:48:19;;;;;;;1.57;1.30;;;;;;;19.91;55.13;95955.03;5006646;28;20206;-23
2024/01/04 02:50:46;;;;;;;1.33;1.10;;;;;;;19.91;55.01;95950.81;5007270;28;20233;-23
2024/01/04 02:53:13;;;;;;;1.20;1.10;;;;;;;19.92;55.10;95959.28;5009721;28;20210;-23
2024/01/04 02:55:39;;;;;;;1.13;1.03;;;;;;;19.92;54.89;95967.78;5005525;28;20199;-23
2024/01/04 02:58:06;;;;;;;1.20;1.10;;;;;;;19.91;55.03;95967.78;5006384;28;20225;-24
2024/01/04 03:00:32;;;;;;;1.20;1.10;;;;;;;19.91;54.93;95966.09;5014915;28;20624;-23
2024/01/04 03:02:59;;;;;;;1.30;1.20;;;;;;;19.91;54.46;95953.34;5005168;28;20219;-23
2024/01/04 03:05:26;;;;;;;1.37;1.10;;;;;;;19.93;54.94;95961.00;5003764;28;20213;-23
2024/01/04 03:07:52;;;;;;;1.73;1.10;;;;;;;19.95;54.87;95961.88;5014354;28;20236;-23
2024/01/04 03:10:19;;;;;;;1.07;1.00;;;;;;;19.96;55.06;95958.50;5014227;28;20202;-23
2024/01/04 03:12:45;;;;;;;0.97;0.90;;;;;;;19.98;54.97;95956.81;5009139;28;20195;-23
2024/01/04 03:15:12;;;;;;;1.47;1.20;;;;;;;19.99;54.88;95948.34;5006659;28;20292;-23
2024/01/04 03:17:39;;;;;;;1.50;1.23;;;;;;;20.00;54.80;95950.03;5014843;28;20625;-23
2024/01/04 03:20:06;;;;;;;1.00;1.00;;;;;;;20.01;54.76;95949.19;5011363;28;20282;-23
2024/01/04 03:22:33;;;;;;;1.40;1.30;;;;;;;20.02;54.86;95954.28;5009565;28;20218;-23
2024/01/04 03:24:59;;;;;;;1.23;1.13;;;;;;;19.99;54.70;95950.88;5005512;28;20622;-23
2024/01/04 03:27:26;;;;;;;1.07;1.07;;;;;;;20.06;54.87;95949.22;5013825;28;20229;-23
2024/01/04 03:29:54;;;;;;;1.20;1.10;;;;;;;20.07;54.52;95954.34;5008246;28;20261;-23
2024/01/04 03:32:21;;;;;;;1.13;1.07;;;;;;;20.02;54.61;95939.00;5007726;28;20615;-23
2024/01/04 03:34:47;;;;;;;2.60;1.00;;;;;;;20.10;54.59;95958.63;5005934;28;20292;-23
2024/01/04 03:37:14;;;;;;;1.30;1.20;;;;;;;20.11;54.57;95956.09;5014461;28;20221;-23
2024/01/04 03:39:40;;;;;;;1.10;1.00;;;;;;;20.12;54.29;95972.25;5014050;28;20643;-23
2024/01/04 03:42:07;;;;;;;1.03;0.97;;;;;;;20.13;54.41;95962.09;5010696;28;20226;-23
2024/01/04 03:44:34;;;;;;;1.10;1.10;;;;;;;20.14;54.45;95968.91;5013911;28;20200;-23
2024/01/04 03:47:00;;;;;;;1.10;1.00;;;;;;;20.16;54.44;95974.03;5013131;28;20209;-23
2024/01/04 03:49:28;;;;;;;0.90;0.90;;;;;;;20.16;54.43;95976.59;5014314;28;20198;-23
2024/01/04 03:51:54;;;;;;;0.90;0.90;;;;;;;20.17;54.20;95968.94;5011045;28;20226;-23
2024/01/04 03:54:22;;;;;;;1.00;1.00;;;;;;;20.19;54.23;95982.56;5011437;28;20202;-27
2024/01/04 03:56:48;;;;;;;1.23;1.13;;;;;;;20.19;54.15;95987.66;5014265;28;20202;-23
2024/01/04 03:59:15;;;;;;;0.90;0.90;;;;;;;20.19;54.39;95991.91;5012915;28;20293;-23
2024/01/04 04:01:44;;;;;;;1.20;1.10;;;;;;;20.20;54.32;95989.38;5010474;28;20225;-23
2024/01/04 04:04:11;;;;;;;0.90;0.90;;;;;;;20.17;54.18;95991.91;5013728;28;20696;-23
2024/01/04 04:06:38;;;;;;;0.97;0.90;;;;;;;20.22;54.23;95997.88;5013380;28;20206;-23
2024/01/04 04:09:08;;;;;;;0.93;0.93;;;;;;;20.23;54.04;96020.03;5013736;28;20198;-23
2024/01/04 04:11:35;;;;;;;0.97;0.90;;;;;;;20.24;54.31;96010.66;5008394;28;20214;-23
2024/01/04 04:14:02;;;;;;;0.80;0.80;;;;;;;20.23;54.02;96009.81;4997518;28;20231;-23
2024/01/04 04:16:28;;;;;;;0.90;0.90;;;;;;;20.24;53.80;96003.88;5005159;28;20194;-23
2024/01/04 04:18:55;;;;;;;0.90;0.90;;;;;;;20.24;54.06;96019.19;5013592;28;20673;-23
2024/01/04 04:21:23;;;;;;;0.87;0.87;;;;;;;20.25;53.88;96008.13;5013252;28;20236;-23
2024/01/04 04:23:50;;;;;;;1.10;1.00;;;;;;;20.26;53.88;96001.34;5010535;28;20269;-23
2024/01/04 04:26:20;;;;;;;1.20;1.10;;;;;;;20.25;54.04;96013.22;5005830;28;20290;-23
2024/01/04 04:28:48;;;;;;;1.00;0.90;;;;;;;20.26;53.95;96012.41;5012849;28;20198;-22
2024/01/04 04:31:15;;;;;;;0.90;0.90;;;;;;;20.27;54.05;96020.91;5012359;28;20234;-23
2024/01/04 04:33:43;;;;;;;1.23;1.13;;;;;;;20.26;54.00;96025.16;5013189;28;20198;-23
2024/01/04 04:36:11;;;;;;;1.30;1.20;;;;;;;20.27;53.84;96034.50;5010156;28;20206;-23
2024/01/04 04:38:37;;;;;;;1.00;0.90;;;;;;;20.28;54.00;96030.28;5013669;28;20202;-23
2024/01/04 04:41:05;;;;;;;1.10;1.00;;;;;;;20.27;53.93;96031.97;5010486;28;20226;-23
2024/01/04 04:43:32;;;;;;;1.33;1.23;;;;;;;20.29;53.97;96019.22;5013122;28;20218;-23
2024/01/04 04:45:58;;;;;;;0.90;0.90;;;;;;;20.27;53.97;96024.31;5013348;28;20225;-23
2024/01/04 04:48:25;;;;;;;2.47;1.20;;;;;;;20.28;53.68;96026.00;5007051;28;20207;-23
2024/01/04 04:50:52;;;;;;;1.10;1.00;;;;;;;20.29;53.89;96029.44;5012641;28;20874;-23
2024/01/04 04:53:19;;;;;;;0.90;0.90;;;;;;;20.29;53.76;96030.28;5007871;28;20209;-23
2024/01/04 04:55:46;;;;;;;1.83;1.10;;;;;;;20.21;53.99;96020.81;5013106;28;20230;-23
2024/01/04 04:58:12;;;;;;;2.90;0.90;;;;;;;20.20;54.10;96029.34;5005810;28;20203;-23
2024/01/04 05:00:39;;;;;;;1.17;1.10;;;;;;;20.17;54.17;96025.06;5010894;28;20770;-23
2024/01/04 05:03:06;;;;;;;1.60;1.00;;;;;;;20.15;54.33;96043.72;5009473;28;20222;-23
2024/01/04 05:05:33;;;;;;;1.13;1.00;;;;;;;20.15;54.21;96038.63;5006809;28;20676;-23
2024/01/04 05:07:59;;;;;;;1.00;1.00;;;;;;;20.11;54.47;96037.72;5009812;28;20203;-23
2024/01/04 05:10:26;;;;;;;1.10;1.00;;;;;;;20.11;54.25;96041.94;5012864;28;20686;-23
2024/01/04 05:12:53;;;;;;;0.83;0.83;;;;;;;20.09;54.32;96064.88;5012253;28;20240;-23
2024/01/04 05:15:19;;;;;;;0.90;0.90;;;;;;;20.09;54.27;96058.91;5012694;28;20276;-23
2024/01/04 05:17:46;;;;;;;0.90;0.90;;;;;;;20.08;54.19;96063.19;5012317;28;20285;-23
2024/01/04 05:20:15;;;;;;;0.80;0.80;;;;;;;20.09;54.12;96071.66;5012297;28;20700;-23
2024/01/04 05:22:41;;;;;;;0.90;0.90;;;;;;;20.09;54.20;96077.63;5002251;28;20272;-23
2024/01/04 05:25:10;;;;;;;1.20;1.00;;;;;;;20.00;54.31;96062.22;5007110;28;20249;-23
2024/01/04 05:27:38;;;;;;;0.90;0.90;;;;;;;20.09;54.32;96069.97;5008542;28;20203;-23
2024/01/04 05:30:07;;;;;;;0.83;0.83;;;;;;;20.10;54.17;96081.06;5011849;28;20289;-23
2024/01/04 05:32:34;;;;;;;1.00;1.00;;;;;;;20.10;54.19;96083.59;5007555;28;20210;-23
2024/01/04 05:35:01;;;;;;;1.07;1.00;;;;;;;20.09;54.16;96076.75;5011848;28;20210;-23
2024/01/04 05:37:28;;;;;;;0.90;0.90;;;;;;;20.09;54.27;96075.09;5008536;28;20203;-24
2024/01/04 05:39:54;;;;;;;1.03;1.00;;;;;;;20.08;54.36;96087.81;5005509;28;20241;-23
2024/01/04 05:42:24;;;;;;;1.80;1.27;;;;;;;20.06;54.38;96092.91;5011537;28;20226;-23
2024/01/04 05:44:50;;;;;;;1.00;1.00;;;;;;;20.06;54.09;96094.56;5006007;28;20202;-23
2024/01/04 05:47:17;;;;;;;0.90;0.90;;;;;;;20.06;54.38;96098.00;5012134;28;20298;-23
2024/01/04 05:49:43;;;;;;;1.23;1.00;;;;;;;20.07;54.38;96109.06;5007547;28;20202;-23
2024/01/04 05:52:10;;;;;;;1.27;1.00;;;;;;;20.05;54.45;96103.06;5011743;28;20225;-23
2024/01/04 05:54:37;;;;;;;1.00;1.00;;;;;;;20.06;54.04;96114.97;5011688;28;20614;-23
2024/01/04 05:57:03;;;;;;;0.90;0.90;;;;;;;20.06;54.11;96114.97;5012304;28;20244;-23
2024/01/04 05:59:30;;;;;;;1.20;1.10;;;;;;;20.06;54.18;96136.25;5003841;28;20213;-23
2024/01/04 06:01:56;;;;;;;1.10;1.00;;;;;;;20.07;54.29;96127.75;5011064;28;20230;-23
2024/01/04 06:04:23;;;;;;;2.87;1.10;;;;;;;20.09;54.25;96132.88;5003731;28;20234;-23
2024/01/04 06:06:50;;;;;;;2.20;0.93;;;;;;;20.10;54.15;96135.44;5010406;28;20198;-23
2024/01/04 06:09:20;;;;;;;1.37;1.10;;;;;;;20.08;54.30;96155.00;5010001;28;20206;-23
2024/01/04 06:11:47;;;;;;;0.90;0.90;;;;;;;20.11;54.43;96142.28;5010611;28;20218;-23
2024/01/04 06:14:14;;;;;;;2.00;1.10;;;;;;;20.14;54.37;96154.22;5012229;28;20206;-23
2024/01/04 06:16:41;;;;;;;0.80;0.80;;;;;;;20.14;54.36;96149.13;5008782;28;20662;-23
2024/01/04 06:19:07;;;;;;;1.27;1.00;;;;;;;20.15;54.21;96156.81;5006369;28;20605;-23
2024/01/04 06:21:34;;;;;;;2.33;1.13;;;;;;;20.16;54.37;96161.06;5008626;28;20693;-24
2024/01/04 06:24:01;;;;;;;2.63;1.20;;;;;;;20.16;54.46;96158.50;5011645;28;20226;-23
2024/01/04 06:26:27;;;;;;;1.87;1.00;;;;;;;20.17;54.25;96160.25;5011812;28;20198;-23
2024/01/04 06:28:54;;;;;;;2.03;1.13;;;;;;;20.18;54.29;96169.59;5005868;28;20290;-23
2024/01/04 06:31:21;;;;;;;1.03;0.93;;;;;;;20.19;54.15;96168.75;5023497;23;20225;-26
2024/01/04 06:33:48;;;;;;;0.90;0.90;;;;;;;20.20;53.73;96175.59;4993630;28;20203;-26
2024/01/04 06:36:15;;;;;;;3.63;1.10;;;;;;;20.19;52.70;96175.56;5006601;28;20693;-27
2024/01/04 06:38:41;;;;;;;1.80;1.10;;;;;;;20.20;52.86;96180.69;5000860;28;20213;-26
2024/01/04 06:41:08;;;;;;;1.87;1.23;;;;;;;20.21;53.12;96191.72;5006422;28;20222;-26
2024/01/04 06:43:35;;;;;;;2.63;1.20;;;;;;;20.21;53.22;96192.59;5007273;28;20222;-28
2024/01/04 06:46:02;;;;;;;1.20;1.00;;;;;;;20.23;53.46;96195.16;4999529;28;20221;-26
2024/01/04 06:48:28;;;;;;;2.77;1.37;;;;;;;20.24;53.53;96207.06;5008124;28;20202;-26
2024/01/04 06:50:55;;;;;;;3.47;1.20;;;;;;;20.23;53.53;96207.91;5002013;28;20206;-26
2024/01/04 06:53:22;;;;;;;1.80;1.00;;;;;;;20.25;53.42;96206.25;5001132;28;20207;-26
2024/01/04 06:55:48;;;;;;;2.10;1.10;;;;;;;20.25;53.52;96211.34;5002767;28;20716;-26
2024/01/04 06:58:15;;;;;;;3.07;1.10;;;;;;;20.26;53.61;96210.50;5005820;28;20214;-26
2024/01/04 07:00:41;;;;;;;2.03;1.40;;;;;;;20.26;53.31;96236.03;4997123;28;20264;-30
2024/01/04 07:03:08;;;;;;;1.10;1.00;;;;;;;20.26;53.58;96219.03;5005185;28;20241;-31
2024/01/04 07:05:35;;;;;;;1.63;1.30;;;;;;;20.27;53.51;96230.94;5010002;28;20202;-26
2024/01/04 07:08:03;;;;;;;3.63;1.10;;;;;;;20.17;53.31;96213.81;5003140;28;20210;-29
2024/01/04 07:10:29;;;;;;;2.57;1.00;;;;;;;20.26;53.59;96231.78;5006087;28;20248;-26
2024/01/04 07:12:56;;;;;;;3.40;1.20;;;;;;;20.29;53.50;96238.63;5001823;28;20223;-28
2024/01/04 07:15:22;;;;;;;2.73;1.13;;;;;;;20.29;53.36;96236.94;4998461;28;20207;-26
2024/01/04 07:17:49;;;;;;;3.10;1.37;;;;;;;20.30;53.61;96246.28;5004090;28;20567;-28
2024/01/04 07:20:16;;;;;;;1.10;1.00;;;;;;;20.23;53.34;96235.97;5003239;28;20617;-26
2024/01/04 07:22:43;;;;;;;5.00;1.30;;;;;;;20.31;53.46;96232.69;5007262;28;20226;-26
2024/01/04 07:25:09;;;;;;;4.30;1.50;;;;;;;20.31;52.42;96259.91;5010888;28;20215;-26
2024/01/04 07:27:36;;;;;;;3.47;1.50;;;;;;;20.21;51.87;96240.19;5010496;28;20656;-27
2024/01/04 07:30:03;;;;;;;1.67;1.30;;;;;;;20.29;51.72;96251.38;5006327;28;20211;-26
2024/01/04 07:32:30;;;;;;;2.43;1.47;;;;;;;20.32;52.24;96251.41;5010956;28;20694;-28
2024/01/04 07:34:57;;;;;;;4.40;1.30;;;;;;;20.31;52.47;96258.19;5005451;28;20211;-26
2024/01/04 07:37:40;;;;;;;3.10;1.40;;;;;;;20.33;53.27;96256.53;4998598;28;20202;-28
2024/01/04 07:40:07;;;;;;;2.70;1.60;;;;;;;20.34;53.36;96257.41;5011468;28;20210;-35
2024/01/04 07:42:34;;;;;;;4.07;1.57;;;;;;;20.36;53.42;96260.81;5008476;28;20222;-27
2024/01/04 07:45:01;;;;;;;4.53;1.73;;;;;;;20.36;53.32;96259.13;5001006;28;20298;-26
2024/01/04 07:47:32;;;;;;;9.33;1.67;;;;;;;20.36;53.23;96264.22;5006618;28;20225;-26
2024/01/04 07:49:59;;;;;;;3.50;1.30;;;;;;;20.35;53.39;96266.75;5003740;28;20207;-27
2024/01/04 07:52:26;;;;;;;8.73;1.80;;;;;;;20.34;53.26;96276.09;5005364;28;20648;-26
2024/01/04 07:54:52;;;;;;;8.23;1.30;;;;;;;20.33;53.41;96282.03;5011912;28;20285;-26
2024/01/04 07:57:19;;;;;;;4.33;1.47;;;;;;;20.33;53.30;96281.19;5013403;28;20277;-26
2024/01/04 07:59:46;;;;;;;6.93;1.70;;;;;;;20.33;53.50;96286.28;4995220;28;20301;-28
2024/01/04 08:02:12;;;;;;;2.67;1.43;;;;;;;20.31;53.36;96290.53;5005363;28;20764;-36
2024/01/04 08:04:39;;;;;;;3.37;1.40;;;;;;;20.29;53.22;96300.72;5004613;28;20210;-28
2024/01/04 08:07:07;;;;;;;3.60;1.60;;;;;;;20.27;53.57;96284.50;5002094;28;20218;-26
2024/01/04 08:09:34;;;;;;;2.63;1.37;;;;;;;20.27;53.41;96294.72;5007595;28;20221;-28
2024/01/04 08:12:05;;;;;;;5.27;1.70;;;;;;;20.26;53.42;96305.75;5000489;28;20404;-39
2024/01/04 08:14:33;;;;;;;2.33;1.50;;;;;;;20.24;53.23;96293.81;4996678;28;20643;-38
2024/01/04 08:16:59;;;;;;;2.23;1.43;;;;;;;20.24;53.55;96304.00;4996911;28;20211;-26
2024/01/04 08:19:26;;;;;;;1.80;1.50;;;;;;;20.22;53.29;96309.09;4995531;28;20276;-29
2024/01/04 08:21:53;;;;;;;1.40;1.30;;;;;;;20.22;53.42;96313.34;4998651;28;20230;-31
2024/01/04 08:24:20;;;;;;;1.80;1.40;;;;;;;20.21;53.43;96312.47;4996809;28;20284;-34
2024/01/04 08:26:47;;;;;;;3.47;1.40;;;;;;;20.20;53.61;96320.09;4999931;28;20205;-30
2024/01/04 08:29:13;;;;;;;3.77;1.27;;;;;;;19.88;53.60;96273.66;4998462;28;20752;-29
2024/01/04 08:31:40;;;;;;;2.13;1.30;;;;;;;20.17;53.74;96320.06;4998948;28;20289;-27
2024/01/04 08:34:06;;;;;;;3.50;1.50;;;;;;;20.16;53.71;96324.28;4996667;28;20285;-26
2024/01/04 08:36:33;;;;;;;3.43;1.30;;;;;;;20.15;53.82;96322.59;4996784;28;20214;-30
2024/01/04 08:39:00;;;;;;;1.83;1.43;;;;;;;20.15;53.89;96327.69;4996215;28;20216;-34
2024/01/04 08:41:27;;;;;;;1.77;1.40;;;;;;;20.15;53.78;96329.38;4999255;28;20732;-28
2024/01/04 08:43:53;;;;;;;2.77;1.60;;;;;;;20.15;52.46;96332.78;4997927;28;20283;-32
2024/01/04 08:46:20;;;;;;;1.23;1.13;;;;;;;20.17;52.92;96340.47;4996184;28;20210;-28
2024/01/04 08:48:46;;;;;;;3.23;1.60;;;;;;;20.15;52.90;96332.78;4996413;28;20206;-29
2024/01/04 08:51:13;;;;;;;3.03;1.60;;;;;;;20.15;53.48;96337.91;4996735;28;20231;-27
2024/01/04 08:53:41;;;;;;;8.50;1.60;;;;;;;20.15;53.36;96339.56;4997653;28;20257;-28
2024/01/04 08:56:08;;;;;;;4.30;1.37;;;;;;;20.14;53.63;96340.41;4998340;28;20210;-34
2024/01/04 08:58:35;;;;;;;2.63;1.20;;;;;;;20.13;53.64;96339.56;5001134;28;20214;-26
2024/01/04 09:01:02;;;;;;;2.43;1.40;;;;;;;20.15;53.52;96337.03;4994564;28;20199;-28
2024/01/04 09:03:29;;;;;;;2.33;1.30;;;;;;;20.16;53.58;96336.22;5000748;28;20305;-30
2024/01/04 09:05:56;;;;;;;5.47;1.43;;;;;;;20.20;52.04;96336.28;4998491;28;20223;-27
2024/01/04 09:08:22;;;;;;;2.43;1.40;;;;;;;20.21;51.03;96343.09;5000197;28;20210;-28
2024/01/04 09:10:49;;;;;;;4.67;1.40;;;;;;;20.21;52.15;96340.53;4996908;28;20760;-39
2024/01/04 09:13:15;;;;;;;1.50;1.40;;;;;;;20.22;52.09;96341.41;4999564;28;20673;-26
2024/01/04 09:15:42;;;;;;;2.37;1.47;;;;;;;20.25;52.40;96332.09;5000423;28;20634;-26
2024/01/04 09:18:09;;;;;;;1.67;1.40;;;;;;;20.26;52.71;96336.38;5000788;28;20195;-29
2024/01/04 09:20:35;;;;;;;1.47;1.30;;;;;;;20.29;52.15;96330.44;5007589;28;20225;-28
2024/01/04 09:23:03;;;;;;;1.50;1.10;;;;;;;20.30;52.44;96338.13;5001439;28;20303;-26
2024/01/04 09:25:29;;;;;;;2.73;1.27;;;;;;;20.31;52.56;96339.84;5010792;28;20194;-28
2024/01/04 09:27:56;;;;;;;2.07;1.20;;;;;;;20.31;52.59;96337.28;5003999;28;20210;-26
2024/01/04 09:30:23;;;;;;;1.50;1.10;;;;;;;20.32;52.60;96344.13;5006356;28;20206;-26
2024/01/04 09:32:50;;;;;;;1.23;1.13;;;;;;;20.34;52.63;96347.53;5011220;28;20647;-27
2024/01/04 09:35:21;;;;;;;4.10;1.27;;;;;;;20.34;52.73;96357.75;5002334;28;20203;-27
2024/01/04 09:37:49;;;;;;;1.97;1.37;;;;;;;20.33;52.57;96362.81;5005740;28;20290;-29
2024/01/04 09:40:17;;;;;;;1.83;1.40;;;;;;;20.33;52.64;96362.81;5002278;28;20744;-26
2024/01/04 09:42:44;;;;;;;5.00;1.30;;;;;;;20.34;52.74;96364.56;4997738;28;20218;-28
2024/01/04 09:45:11;;;;;;;1.53;1.10;;;;;;;20.33;52.53;96366.25;5003102;28;20764;-26
2024/01/04 09:47:40;;;;;;;2.63;1.30;;;;;;;20.29;52.96;96373.81;4985641;28;20740;-28
2024/01/04 09:50:10;;;;;;;2.47;1.40;;;;;;;20.25;53.04;96379.72;5003442;28;20292;-26
2024/01/04 09:52:45;;;;;;;2.17;1.60;;;;;;;20.16;52.82;96361.72;5004269;28;20310;-26
2024/01/04 09:55:12;;;;;;;3.07;1.30;;;;;;;20.21;52.94;96363.50;4996134;28;20198;-26
2024/01/04 09:57:38;;;;;;;2.13;1.20;;;;;;;20.19;53.29;96379.63;5009404;28;20369;-28
2024/01/04 10:00:08;;;;;;;1.20;1.03;;;;;;;20.19;52.98;96375.34;5010124;28;20932;-26
2024/01/04 10:02:39;;;;;;;1.47;1.33;;;;;;;20.18;53.03;96385.53;5002664;28;20222;-32
2024/01/04 10:05:06;;;;;;;1.87;1.37;;;;;;;20.18;53.15;96373.66;5004394;28;20704;-26
2024/01/04 10:07:33;;;;;;;4.60;1.20;;;;;;;20.16;52.98;96380.41;4986950;28;20269;-26
2024/01/04 10:10:04;;;;;;;1.37;1.00;;;;;;;20.17;53.27;96373.63;5007138;28;20211;-26
2024/01/04 10:12:32;;;;;;;1.40;1.20;;;;;;;20.14;53.07;96379.53;5003376;28;20228;-27
2024/01/04 10:14:59;;;;;;;2.67;1.40;;;;;;;20.16;53.23;96411.03;5005617;28;20230;-27
2024/01/04 10:17:26;;;;;;;3.37;1.30;;;;;;;20.14;53.09;96411.84;5000358;28;20211;-26
2024/01/04 10:19:52;;;;;;;3.27;1.20;;;;;;;20.13;53.17;96421.16;5001414;28;20199;-26
2024/01/04 10:22:20;;;;;;;3.20;1.33;;;;;;;20.12;53.10;96416.00;5001071;28;20250;-28
2024/01/04 10:24:47;;;;;;;2.53;1.50;;;;;;;20.11;52.97;96422.81;4997318;28;20223;-29
2024/01/04 10:27:14;;;;;;;2.80;1.13;;;;;;;20.11;53.26;96434.69;5007194;28;20202;-26
2024/01/04 10:29:44;;;;;;;2.70;1.33;;;;;;;20.01;53.46;96407.34;5006186;28;20554;-27
2024/01/04 10:32:12;;;;;;;2.67;1.30;;;;;;;20.10;53.26;96436.38;4999359;28;20583;-33
2024/01/04 10:34:39;;;;;;;3.87;1.17;;;;;;;20.10;53.48;96440.66;5009494;28;20630;-26
2024/01/04 10:37:13;;;;;;;5.10;1.40;;;;;;;20.10;53.33;96430.44;5002317;28;20206;-26
2024/01/04 10:39:43;;;;;;;5.13;1.50;;;;;;;20.10;53.40;96433.00;5007026;28;20204;-26
2024/01/04 10:42:09;;;;;;;3.37;1.37;;;;;;;20.11;53.39;96430.47;4999867;28;20221;-29
2024/01/04 10:44:36;;;;;;;2.07;1.30;;;;;;;20.11;53.45;96442.34;5003620;28;20221;-27
2024/01/04 10:47:05;;;;;;;5.27;1.43;;;;;;;20.13;53.43;96433.09;4999366;28;20198;-26
2024/01/04 10:49:31;;;;;;;4.53;1.77;;;;;;;20.13;53.55;96435.63;5007254;28;20230;-27
2024/01/04 10:51:58;;;;;;;4.33;1.53;;;;;;;20.14;53.50;96439.91;5003167;28;20688;-26
2024/01/04 10:54:30;;;;;;;9.47;1.70;;;;;;;20.14;53.63;96438.22;5007543;28;20199;-26
2024/01/04 10:56:58;;;;;;;5.87;2.20;;;;;;;20.17;53.64;96442.50;5008974;28;20234;-27
2024/01/04 10:59:26;;;;;;;18.33;1.97;;;;;;;20.19;53.51;96451.03;5003947;28;20233;-28
2024/01/04 11:01:53;;;;;;;7.73;1.87;;;;;;;20.19;53.69;96443.38;5003248;28;20751;-29
2024/01/04 11:04:21;;;;;;;4.77;1.50;;;;;;;20.21;53.63;96449.34;4990095;28;20688;-29
2024/01/04 11:06:49;;;;;;;11.87;1.80;;;;;;;20.22;53.53;96434.06;5009499;28;20257;-26
2024/01/04 11:09:17;;;;;;;8.27;2.00;;;;;;;20.21;53.26;96450.22;5007686;28;20202;-26
2024/01/04 11:11:44;;;;;;;7.67;1.77;;;;;;;20.22;53.28;96444.28;4992172;28;20593;-26
2024/01/04 11:14:11;;;;;;;5.67;1.43;;;;;;;20.23;53.47;96448.56;5006719;28;20241;-31
2024/01/04 11:16:52;;;;;;;6.97;1.80;;;;;;;20.23;53.12;96442.59;5012743;28;20696;-28
2024/01/04 11:19:28;;;;;;;5.07;1.50;;;;;;;20.23;53.18;96440.91;5012740;28;21289;-28
2024/01/04 11:22:00;;;;;;;8.50;1.43;;;;;;;20.23;53.03;96448.56;5009623;28;20602;-26
2024/01/04 11:24:40;;;;;;;4.80;1.47;;;;;;;20.23;53.17;96438.38;5011108;28;20316;-28
2024/01/04 11:27:09;;;;;;;4.13;1.63;;;;;;;20.23;52.88;96440.91;5001331;28;20252;-33
2024/01/04 11:29:36;;;;;;;4.93;1.47;;;;;;;20.22;52.99;96446.84;4989829;28;20699;-31
2024/01/04 11:32:03;;;;;;;3.47;1.40;;;;;;;20.23;53.20;96440.06;4993895;28;20234;-26
2024/01/04 11:34:29;;;;;;;4.03;1.50;;;;;;;20.23;53.22;96445.16;4996755;28;20290;-28